Time;durP1;ratioP1;P1;durP2;ratioP2;P2;SDS_P1;SDS_P2;PMS_P1;PMS_P2;Temp;Humidity;BMP_temperature;BMP_pressure;BME280_temperature;BME280_humidity;BME280_pressure;Samples;Min_cycle;Max_cycle;Signal;HPM_P1;HPM_P2
2021/11/20 00:00:23;;;;;;;36.50;30.88;;;12.90;99.90;;;;;;2072113;28;20038;-70
2021/11/20 00:01:27;;;;;;;39.67;31.23;;;12.90;99.90;;;;;;2072006;28;20065;-70
2021/11/20 00:02:31;;;;;;;35.58;31.13;;;12.90;99.90;;;;;;2072116;28;20036;-69
2021/11/20 00:03:33;;;;;;;35.88;30.33;;;12.90;99.90;;;;;;2072547;28;20492;-69
2021/11/20 00:04:34;;;;;;;38.63;30.83;;;12.90;99.90;;;;;;2072309;28;20844;-70
2021/11/20 00:05:41;;;;;;;37.95;31.05;;;12.90;99.90;;;;;;2072146;28;20406;-70
2021/11/20 00:06:46;;;;;;;39.58;30.77;;;12.90;99.90;;;;;;2071979;28;20038;-70
2021/11/20 00:07:47;;;;;;;33.58;29.83;;;12.90;99.90;;;;;;2072422;28;20454;-70
2021/11/20 00:08:48;;;;;;;34.72;30.40;;;12.90;99.90;;;;;;2079156;28;20026;-70
2021/11/20 00:09:49;;;;;;;34.45;30.02;;;12.90;99.90;;;;;;2079656;28;20076;-70
2021/11/20 00:11:04;;;;;;;36.53;30.33;;;12.90;99.90;;;;;;2071984;28;20026;-70
2021/11/20 00:12:27;;;;;;;38.17;30.75;;;12.90;99.90;;;;;;2071796;28;20089;-70
2021/11/20 00:13:28;;;;;;;36.08;30.10;;;12.90;99.90;;;;;;2064115;28;20117;-70
2021/11/20 00:14:30;;;;;;;40.22;30.98;;;12.90;99.90;;;;;;2069822;28;20148;-70
2021/11/20 00:15:33;;;;;;;37.35;31.17;;;12.90;99.90;;;;;;2072391;28;20474;-70
2021/11/20 00:16:34;;;;;;;34.53;29.75;;;12.90;99.90;;;;;;2072467;28;20096;-70
2021/11/20 00:17:35;;;;;;;36.80;30.77;;;12.90;99.90;;;;;;2071961;28;20065;-70
2021/11/20 00:18:37;;;;;;;35.20;30.63;;;12.90;99.90;;;;;;2071841;28;20028;-70
2021/11/20 00:19:38;;;;;;;37.10;30.25;;;12.90;99.90;;;;;;2072285;28;20018;-70
2021/11/20 00:20:48;;;;;;;36.63;29.90;;;12.90;99.90;;;;;;2072168;28;20025;-70
2021/11/20 00:22:20;;;;;;;34.92;29.90;;;12.90;99.90;;;;;;2072355;28;20110;-70
2021/11/20 00:23:25;;;;;;;37.67;30.63;;;12.90;99.90;;;;;;2063878;28;20033;-70
2021/11/20 00:24:33;;;;;;;33.60;29.92;;;12.90;99.90;;;;;;2071800;28;20026;-70
2021/11/20 00:25:44;;;;;;;36.05;30.15;;;12.90;99.90;;;;;;2072004;28;20374;-70
2021/11/20 00:26:45;;;;;;;35.20;29.55;;;12.90;99.90;;;;;;2071472;28;20080;-70
2021/11/20 00:27:46;;;;;;;36.45;29.95;;;12.90;99.90;;;;;;2071443;28;20065;-70
2021/11/20 00:29:06;;;;;;;33.70;28.35;;;12.90;99.90;;;;;;2067813;28;20377;-70
2021/11/20 00:30:15;;;;;;;35.00;28.67;;;12.90;99.90;;;;;;2072016;28;20104;-70
2021/11/20 00:31:16;;;;;;;32.03;28.25;;;12.90;99.90;;;;;;2071961;28;20482;-70
2021/11/20 00:32:21;;;;;;;41.20;30.33;;;12.90;99.90;;;;;;2072157;28;20045;-70
2021/11/20 00:33:29;;;;;;;35.78;29.10;;;12.90;99.90;;;;;;2072135;28;20022;-70
2021/11/20 00:34:32;;;;;;;32.83;27.95;;;12.90;99.90;;;;;;2072303;28;20385;-70
2021/11/20 00:35:41;;;;;;;35.13;28.75;;;12.90;99.90;;;;;;2071984;28;20018;-70
2021/11/20 00:36:42;;;;;;;37.03;29.48;;;12.90;99.90;;;;;;2071974;28;20437;-70
2021/11/20 00:37:44;;;;;;;33.83;27.73;;;12.90;99.90;;;;;;2071894;28;20041;-70
2021/11/20 00:38:45;;;;;;;35.28;29.55;;;12.90;99.90;;;;;;2069189;28;20037;-70
2021/11/20 00:39:45;;;;;;;32.83;29.02;;;12.90;99.90;;;;;;2071994;28;20030;-70
2021/11/20 00:40:52;;;;;;;32.75;28.05;;;12.90;99.90;;;;;;2072341;28;20071;-70
2021/11/20 00:41:54;;;;;;;34.10;27.73;;;13.00;99.90;;;;;;2071932;28;20462;-70
2021/11/20 00:42:54;;;;;;;33.55;28.50;;;13.00;99.90;;;;;;2072412;28;20026;-70
2021/11/20 00:43:56;;;;;;;35.00;29.38;;;12.90;99.90;;;;;;2072142;28;20037;-70
2021/11/20 00:44:56;;;;;;;36.70;28.70;;;12.90;99.90;;;;;;2079594;28;20025;-70
2021/11/20 00:45:57;;;;;;;34.28;27.85;;;13.00;99.90;;;;;;2079474;28;20439;-70
2021/11/20 00:46:57;;;;;;;32.75;28.27;;;13.00;99.90;;;;;;2071970;28;20021;-70
2021/11/20 00:47:59;;;;;;;34.20;27.98;;;13.00;99.90;;;;;;2071873;28;20025;-70
2021/11/20 00:49:00;;;;;;;38.47;28.75;;;12.90;99.90;;;;;;2071473;28;20026;-70
2021/11/20 00:50:02;;;;;;;31.77;28.23;;;12.90;99.90;;;;;;2071975;28;20564;-70
2021/11/20 00:51:08;;;;;;;34.83;29.45;;;12.90;99.90;;;;;;2071950;28;20877;-70
2021/11/20 00:52:09;;;;;;;31.92;28.23;;;12.90;99.90;;;;;;2072259;28;20022;-70
2021/11/20 00:53:11;;;;;;;32.42;27.70;;;12.90;99.90;;;;;;2071902;28;20053;-70
2021/11/20 00:54:11;;;;;;;35.78;28.38;;;12.90;99.90;;;;;;2071767;28;20028;-70
2021/11/20 00:55:17;;;;;;;33.72;28.23;;;12.90;99.90;;;;;;2071494;28;20033;-70
2021/11/20 00:56:20;;;;;;;35.50;29.13;;;12.90;99.90;;;;;;2071783;28;20026;-70
2021/11/20 00:57:20;;;;;;;33.83;29.27;;;12.90;99.90;;;;;;2071041;28;20034;-70
2021/11/20 00:58:22;;;;;;;36.13;28.50;;;12.90;99.90;;;;;;2062614;28;20030;-70
2021/11/20 00:59:22;;;;;;;35.03;27.90;;;12.90;99.90;;;;;;2071309;28;20044;-70
2021/11/20 01:00:28;;;;;;;33.22;28.95;;;12.90;99.90;;;;;;2072081;28;20022;-70
2021/11/20 01:01:36;;;;;;;32.97;28.00;;;12.90;99.90;;;;;;2072204;28;20057;-70
2021/11/20 01:02:37;;;;;;;33.28;27.48;;;12.90;99.90;;;;;;2071600;28;20069;-69
2021/11/20 01:03:37;;;;;;;40.17;29.50;;;12.90;99.90;;;;;;2071723;28;20028;-70
2021/11/20 01:04:38;;;;;;;32.17;28.08;;;13.00;99.90;;;;;;2071688;28;20037;-70
2021/11/20 01:05:39;;;;;;;34.45;28.38;;;12.90;99.90;;;;;;2071837;28;20398;-70
2021/11/20 01:06:42;;;;;;;38.53;29.00;;;12.90;99.90;;;;;;2071710;28;20026;-70
2021/11/20 01:07:43;;;;;;;33.17;27.95;;;12.90;99.90;;;;;;2071826;28;20022;-70
2021/11/20 01:08:46;;;;;;;36.05;28.30;;;12.90;99.90;;;;;;2071587;28;20029;-70
2021/11/20 01:09:46;;;;;;;34.13;27.38;;;12.90;99.90;;;;;;2071726;28;20037;-70
2021/11/20 01:10:53;;;;;;;33.28;27.40;;;12.90;99.90;;;;;;2071674;28;20101;-70
2021/11/20 01:11:58;;;;;;;32.78;26.90;;;12.90;99.90;;;;;;2072014;28;20061;-70
2021/11/20 01:13:00;;;;;;;34.85;27.83;;;12.90;99.90;;;;;;2071727;28;20026;-70
2021/11/20 01:14:03;;;;;;;32.88;27.75;;;12.90;99.90;;;;;;2071743;28;20026;-70
2021/11/20 01:15:08;;;;;;;33.78;28.77;;;12.90;99.90;;;;;;2071443;28;20029;-70
2021/11/20 01:16:11;;;;;;;34.65;27.75;;;12.90;99.90;;;;;;2071857;28;20022;-70
2021/11/20 01:17:13;;;;;;;30.02;26.73;;;12.90;99.90;;;;;;2071898;28;20017;-70
2021/11/20 01:18:18;;;;;;;34.30;27.35;;;12.90;99.90;;;;;;2071011;28;20036;-70
2021/11/20 01:19:20;;;;;;;34.22;27.00;;;12.90;99.90;;;;;;2071817;28;20395;-70
2021/11/20 01:20:21;;;;;;;34.17;27.63;;;12.90;99.90;;;;;;2072003;28;20044;-70
2021/11/20 01:21:22;;;;;;;31.38;27.67;;;12.90;99.90;;;;;;2071755;28;20029;-70
2021/11/20 01:22:25;;;;;;;34.80;27.67;;;12.90;99.90;;;;;;2070878;28;20401;-70
2021/11/20 01:23:28;;;;;;;36.65;28.02;;;12.90;99.90;;;;;;2070570;28;20022;-70
2021/11/20 01:24:28;;;;;;;32.65;27.70;;;12.90;99.90;;;;;;2064104;28;20054;-69
2021/11/20 01:25:29;;;;;;;35.08;27.27;;;12.90;99.90;;;;;;2070156;28;20482;-70
2021/11/20 01:26:30;;;;;;;32.58;27.50;;;12.90;99.90;;;;;;2071264;28;20033;-70
2021/11/20 01:27:31;;;;;;;35.88;28.63;;;12.90;99.90;;;;;;2070009;28;20033;-70
2021/11/20 01:28:35;;;;;;;34.47;26.83;;;12.90;99.90;;;;;;2070634;28;20550;-70
2021/11/20 01:29:36;;;;;;;31.23;26.40;;;12.90;99.90;;;;;;2071149;28;20033;-70
2021/11/20 01:30:37;;;;;;;33.08;27.17;;;12.90;99.90;;;;;;2070984;28;20037;-70
2021/11/20 01:31:41;;;;;;;32.15;28.63;;;12.90;99.90;;;;;;2071118;28;20036;-69
2021/11/20 01:32:42;;;;;;;35.03;29.65;;;12.90;99.90;;;;;;2062996;28;20022;-69
2021/11/20 01:33:45;;;;;;;32.40;27.63;;;12.90;99.90;;;;;;2067630;28;20025;-70
2021/11/20 01:34:46;;;;;;;31.25;27.52;;;12.90;99.90;;;;;;2071542;28;20021;-70
2021/11/20 01:35:47;;;;;;;30.77;27.40;;;12.90;99.90;;;;;;2071180;28;20041;-70
2021/11/20 01:36:50;;;;;;;31.58;27.25;;;12.90;99.90;;;;;;2071604;28;20030;-70
2021/11/20 01:37:52;;;;;;;34.42;28.27;;;12.90;99.90;;;;;;2071552;28;20060;-70
2021/11/20 01:38:55;;;;;;;33.75;28.08;;;12.90;99.90;;;;;;2070973;28;20113;-70
2021/11/20 01:39:56;;;;;;;31.02;26.83;;;12.90;99.90;;;;;;2070528;28;20097;-70
2021/11/20 01:40:57;;;;;;;30.75;27.25;;;12.90;99.90;;;;;;2066036;28;20018;-70
2021/11/20 01:42:05;;;;;;;34.33;28.15;;;12.90;99.90;;;;;;2072709;28;20394;-70
2021/11/20 01:43:07;;;;;;;33.38;27.42;;;12.90;99.90;;;;;;2071433;28;20017;-70
2021/11/20 01:44:33;;;;;;;30.15;26.58;;;12.90;99.90;;;;;;2077589;28;20037;-70
2021/11/20 01:45:38;;;;;;;32.00;26.77;;;12.90;99.90;;;;;;2070007;28;20144;-70
2021/11/20 01:46:43;;;;;;;34.40;27.67;;;12.90;99.90;;;;;;2070409;28;20084;-70
2021/11/20 01:47:49;;;;;;;30.08;25.88;;;12.90;99.90;;;;;;2063960;28;20018;-70
2021/11/20 01:49:10;;;;;;;30.40;26.35;;;12.90;99.90;;;;;;2070982;28;20366;-69
2021/11/20 01:50:16;;;;;;;31.95;25.95;;;12.90;99.90;;;;;;2071536;28;20113;-70
2021/11/20 01:51:36;;;;;;;32.83;27.15;;;12.90;99.90;;;;;;2071446;28;20393;-70
2021/11/20 01:53:14;;;;;;;30.58;27.25;;;12.90;99.90;;;;;;2071580;28;20445;-70
2021/11/20 01:54:37;;;;;;;31.33;26.83;;;12.90;99.90;;;;;;2068851;28;20748;-70
2021/11/20 01:55:43;;;;;;;33.28;26.65;;;12.80;99.90;;;;;;2071625;28;20401;-70
2021/11/20 01:57:00;;;;;;;31.40;27.42;;;12.80;99.90;;;;;;2071249;28;20032;-70
2021/11/20 01:58:19;;;;;;;34.42;27.05;;;12.90;99.90;;;;;;2071411;28;20045;-70
2021/11/20 01:59:44;;;;;;;32.22;26.98;;;12.80;99.90;;;;;;2071337;28;20034;-70
2021/11/20 02:00:49;;;;;;;33.25;28.35;;;12.80;99.90;;;;;;2072132;28;20022;-70
2021/11/20 02:01:54;;;;;;;33.15;26.95;;;12.80;99.90;;;;;;2071855;28;20018;-70
2021/11/20 02:03:24;;;;;;;31.88;26.88;;;12.80;99.90;;;;;;2071189;28;20033;-70
2021/11/20 02:04:35;;;;;;;37.57;28.80;;;12.80;99.90;;;;;;2071591;28;20029;-70
2021/11/20 02:06:04;;;;;;;32.53;26.67;;;12.80;99.90;;;;;;2071218;28;20344;-70
2021/11/20 02:07:21;;;;;;;32.05;26.83;;;12.80;99.90;;;;;;2063391;28;20039;-70
2021/11/20 02:08:31;;;;;;;32.95;27.42;;;12.80;99.90;;;;;;2066380;28;20040;-69
2021/11/20 02:09:41;;;;;;;32.90;26.77;;;12.80;99.90;;;;;;2071352;28;20112;-70
2021/11/20 02:10:50;;;;;;;30.30;27.02;;;12.80;99.90;;;;;;2071258;28;20157;-70
2021/11/20 02:12:09;;;;;;;32.60;26.75;;;12.80;99.90;;;;;;2071846;28;21201;-70
2021/11/20 02:13:13;;;;;;;31.63;26.75;;;12.80;99.90;;;;;;2063334;28;20120;-70
2021/11/20 02:14:17;;;;;;;32.08;26.88;;;12.80;99.90;;;;;;2067419;28;20040;-70
2021/11/20 02:15:27;;;;;;;32.75;27.20;;;12.80;99.90;;;;;;2071325;28;20404;-71
2021/11/20 02:16:34;;;;;;;35.58;28.50;;;12.80;99.90;;;;;;2064656;28;20038;-70
2021/11/20 02:17:52;;;;;;;32.53;26.88;;;12.80;99.90;;;;;;2071314;28;20037;-70
2021/11/20 02:18:56;;;;;;;33.85;28.98;;;12.80;99.90;;;;;;2070782;28;20032;-70
2021/11/20 02:20:01;;;;;;;33.25;28.02;;;12.80;99.90;;;;;;2071346;28;20101;-70
2021/11/20 02:21:31;;;;;;;35.20;27.30;;;12.80;99.90;;;;;;2071473;28;20190;-70
2021/11/20 02:22:39;;;;;;;;;;;12.80;99.90;;;;;;2072176;28;20176;-70
2021/11/20 02:23:39;;;;;;;38.00;25.92;;;12.70;99.90;;;;;;2071357;28;19909;-70
2021/11/20 02:24:40;;;;;;;32.13;28.73;;;12.70;99.90;;;;;;2070981;28;20084;-70
2021/11/20 02:25:40;;;;;;;34.65;28.13;;;12.80;99.90;;;;;;2071295;28;20029;-70
2021/11/20 02:26:41;;;;;;;33.70;27.63;;;12.70;99.90;;;;;;2071331;28;20351;-70
2021/11/20 02:27:45;;;;;;;31.60;27.33;;;12.80;99.90;;;;;;2071538;28;20026;-70
2021/11/20 02:28:48;;;;;;;32.38;28.33;;;12.80;99.90;;;;;;2066589;28;20030;-70
2021/11/20 02:29:49;;;;;;;33.13;27.83;;;12.80;99.90;;;;;;2070752;28;20058;-70
2021/11/20 02:30:50;;;;;;;29.63;26.58;;;12.80;99.90;;;;;;2071329;28;20722;-70
2021/11/20 02:31:55;;;;;;;30.38;27.10;;;12.80;99.90;;;;;;2071477;28;20049;-70
2021/11/20 02:33:26;;;;;;;32.88;27.40;;;12.80;99.90;;;;;;2070560;28;20034;-70
2021/11/20 02:34:30;;;;;;;33.60;27.25;;;12.70;99.90;;;;;;2062465;28;20112;-70
2021/11/20 02:35:38;;;;;;;31.80;27.90;;;12.70;99.90;;;;;;2070846;28;20449;-70
2021/11/20 02:36:39;;;;;;;33.58;28.27;;;12.70;99.90;;;;;;2069645;28;20038;-70
2021/11/20 02:37:42;;;;;;;32.80;28.10;;;12.70;99.90;;;;;;2072445;28;20053;-70
2021/11/20 02:38:48;;;;;;;34.17;27.10;;;12.80;99.90;;;;;;2071754;28;20044;-70
2021/11/20 02:39:48;;;;;;;30.33;26.67;;;12.80;99.90;;;;;;2072829;28;20061;-70
2021/11/20 02:40:49;;;;;;;30.20;26.85;;;12.70;99.90;;;;;;2072647;28;20213;-70
2021/11/20 02:41:53;;;;;;;34.10;28.02;;;12.80;99.90;;;;;;2072948;28;20025;-70
2021/11/20 02:42:55;;;;;;;30.65;26.63;;;12.80;99.90;;;;;;2072983;28;20030;-70
2021/11/20 02:43:57;;;;;;;33.85;27.65;;;12.80;99.90;;;;;;2072301;28;20026;-70
2021/11/20 02:44:58;;;;;;;30.15;26.60;;;12.80;99.90;;;;;;2072224;28;20153;-70
2021/11/20 02:45:59;;;;;;;34.22;27.90;;;12.80;99.90;;;;;;2073359;28;20076;-70
2021/11/20 02:47:03;;;;;;;31.30;27.17;;;12.80;99.90;;;;;;2072680;28;20370;-70
2021/11/20 02:48:05;;;;;;;31.38;27.55;;;12.80;99.90;;;;;;2072770;28;20414;-70
2021/11/20 02:49:08;;;;;;;32.58;27.83;;;12.80;99.90;;;;;;2072612;28;20018;-70
2021/11/20 02:50:10;;;;;;;32.42;27.48;;;12.80;99.90;;;;;;2072615;28;20030;-70
2021/11/20 02:51:17;;;;;;;33.35;27.33;;;12.80;99.90;;;;;;2072688;28;20033;-70
2021/11/20 02:52:20;;;;;;;31.30;27.10;;;12.80;99.90;;;;;;2072949;28;20037;-70
2021/11/20 02:53:40;;;;;;;32.97;29.08;;;12.80;99.90;;;;;;2072894;28;20030;-70
2021/11/20 02:54:42;;;;;;;34.70;27.98;;;12.80;99.90;;;;;;2072642;28;20033;-70
2021/11/20 02:55:49;;;;;;;31.65;27.58;;;12.80;99.90;;;;;;2072637;28;20512;-70
2021/11/20 02:57:04;;;;;;;33.42;27.58;;;12.80;99.90;;;;;;2072420;28;20109;-70
2021/11/20 02:58:05;;;;;;;30.23;27.02;;;12.80;99.90;;;;;;2072659;28;20021;-70
2021/11/20 02:59:06;;;;;;;33.42;28.38;;;12.80;99.90;;;;;;2072453;28;20022;-70
2021/11/20 03:00:11;;;;;;;31.40;28.02;;;12.80;99.90;;;;;;2072754;28;20045;-69
2021/11/20 03:01:16;;;;;;;34.53;28.77;;;12.80;99.90;;;;;;2072180;28;20101;-70
2021/11/20 03:02:17;;;;;;;31.15;27.65;;;12.80;99.90;;;;;;2072421;28;20413;-70
2021/11/20 03:03:18;;;;;;;34.55;27.98;;;12.80;99.90;;;;;;2071713;28;20026;-70
2021/11/20 03:04:22;;;;;;;31.88;28.45;;;12.80;99.90;;;;;;2072375;28;20040;-70
2021/11/20 03:05:23;;;;;;;34.28;28.65;;;12.80;99.90;;;;;;2064322;28;20461;-70
2021/11/20 03:06:23;;;;;;;34.67;29.10;;;12.80;99.90;;;;;;2072644;28;20052;-70
2021/11/20 03:07:24;;;;;;;33.47;28.80;;;12.80;99.90;;;;;;2072545;28;20022;-70
2021/11/20 03:08:24;;;;;;;32.60;28.77;;;12.80;99.90;;;;;;2072625;28;20398;-70
2021/11/20 03:09:28;;;;;;;33.80;28.25;;;12.80;99.90;;;;;;2072787;28;20075;-70
2021/11/20 03:10:30;;;;;;;33.13;27.70;;;12.80;99.90;;;;;;2072967;28;20514;-70
2021/11/20 03:11:31;;;;;;;35.67;29.10;;;12.80;99.90;;;;;;2072527;28;20084;-70
2021/11/20 03:12:32;;;;;;;37.13;30.15;;;12.80;99.90;;;;;;2072781;28;20028;-70
2021/11/20 03:13:34;;;;;;;33.08;28.73;;;12.80;99.90;;;;;;2072708;28;20033;-70
2021/11/20 03:14:36;;;;;;;32.92;29.30;;;12.80;99.90;;;;;;2072825;28;20080;-70
2021/11/20 03:15:37;;;;;;;34.90;28.80;;;12.80;99.90;;;;;;2072476;28;20022;-70
2021/11/20 03:16:41;;;;;;;32.38;28.92;;;12.80;99.90;;;;;;2072626;28;20028;-70
2021/11/20 03:17:42;;;;;;;34.60;28.60;;;12.80;99.90;;;;;;2072384;28;20061;-70
2021/11/20 03:18:43;;;;;;;34.42;29.30;;;12.80;99.90;;;;;;2072452;28;20018;-70
2021/11/20 03:19:47;;;;;;;34.15;29.58;;;12.80;99.90;;;;;;2072477;28;20030;-70
2021/11/20 03:20:48;;;;;;;32.08;28.67;;;12.80;99.90;;;;;;2072675;28;20629;-70
2021/11/20 03:21:56;;;;;;;35.58;28.85;;;12.80;99.90;;;;;;2072634;28;20022;-70
2021/11/20 03:23:02;;;;;;;33.08;29.48;;;12.80;99.90;;;;;;2072962;28;20025;-70
2021/11/20 03:24:05;;;;;;;34.15;30.55;;;12.80;99.90;;;;;;2072605;28;20506;-70
2021/11/20 03:25:06;;;;;;;33.17;29.50;;;12.80;99.90;;;;;;2072696;28;20037;-70
2021/11/20 03:26:08;;;;;;;36.42;30.95;;;12.80;99.90;;;;;;2072963;28;20108;-70
2021/11/20 03:27:08;;;;;;;36.92;30.38;;;12.80;99.90;;;;;;2072489;28;20044;-70
2021/11/20 03:28:09;;;;;;;37.58;31.50;;;12.80;99.90;;;;;;2072127;28;20470;-70
2021/11/20 03:29:10;;;;;;;36.50;31.25;;;12.80;99.90;;;;;;2065746;28;20564;-70
2021/11/20 03:30:12;;;;;;;34.47;30.05;;;12.80;99.90;;;;;;2070897;28;20502;-70
2021/11/20 03:31:13;;;;;;;37.17;32.05;;;12.80;99.90;;;;;;2072508;28;20053;-70
2021/11/20 03:32:14;;;;;;;36.38;30.85;;;12.80;99.90;;;;;;2073144;28;20125;-70
2021/11/20 03:33:15;;;;;;;35.60;30.40;;;12.80;99.90;;;;;;2078652;28;20029;-70
2021/11/20 03:34:16;;;;;;;39.63;32.10;;;12.80;99.90;;;;;;2072310;28;20030;-70
2021/11/20 03:35:17;;;;;;;36.28;31.67;;;12.80;99.90;;;;;;2072431;28;20053;-70
2021/11/20 03:36:17;;;;;;;35.78;30.88;;;12.80;99.90;;;;;;2072491;28;20111;-70
2021/11/20 03:37:22;;;;;;;38.35;32.13;;;12.80;99.90;;;;;;2072116;28;20026;-70
2021/11/20 03:38:24;;;;;;;40.38;31.98;;;12.80;99.90;;;;;;2071918;28;20025;-70
2021/11/20 03:39:24;;;;;;;35.67;31.77;;;12.80;99.90;;;;;;2072164;28;20057;-70
2021/11/20 03:40:26;;;;;;;35.50;31.67;;;12.80;99.90;;;;;;2072332;28;20018;-70
2021/11/20 03:41:26;;;;;;;37.75;31.63;;;12.80;99.90;;;;;;2072859;28;20026;-70
2021/11/20 03:42:27;;;;;;;33.83;29.92;;;12.80;99.90;;;;;;2072392;28;20097;-70
2021/11/20 03:43:27;;;;;;;36.88;29.90;;;12.80;99.90;;;;;;2072627;28;20076;-70
2021/11/20 03:44:28;;;;;;;35.10;30.10;;;12.80;99.90;;;;;;2072633;28;20023;-70
2021/11/20 03:45:31;;;;;;;37.80;31.67;;;12.80;99.90;;;;;;2071877;28;20041;-70
2021/11/20 03:46:31;;;;;;;39.65;32.58;;;12.80;99.90;;;;;;2071451;28;20105;-70
2021/11/20 03:47:33;;;;;;;37.15;30.95;;;12.70;99.90;;;;;;2072275;28;20025;-70
2021/11/20 03:48:34;;;;;;;34.92;31.05;;;12.80;99.90;;;;;;2071892;28;20033;-70
2021/11/20 03:49:35;;;;;;;34.63;30.67;;;12.80;99.90;;;;;;2072317;28;20025;-70
2021/11/20 03:50:38;;;;;;;36.08;30.52;;;12.80;99.90;;;;;;2072585;28;20160;-70
2021/11/20 03:51:38;;;;;;;36.55;31.95;;;12.80;99.90;;;;;;2072319;28;20528;-69
2021/11/20 03:52:40;;;;;;;39.17;31.67;;;12.80;99.90;;;;;;2072701;28;20358;-70
2021/11/20 03:53:40;;;;;;;34.80;30.50;;;12.80;99.90;;;;;;2072487;28;20022;-70
2021/11/20 03:54:41;;;;;;;38.50;31.90;;;12.80;99.90;;;;;;2072461;28;20083;-70
2021/11/20 03:55:46;;;;;;;36.95;31.17;;;12.80;99.90;;;;;;2072379;28;20026;-70
2021/11/20 03:56:46;;;;;;;40.03;30.88;;;12.80;99.90;;;;;;2072576;28;20080;-70
2021/11/20 03:57:47;;;;;;;36.72;30.98;;;12.80;99.90;;;;;;2072340;28;20056;-70
2021/11/20 03:58:48;;;;;;;37.40;31.77;;;12.70;99.90;;;;;;2072401;28;20020;-70
2021/11/20 03:59:50;;;;;;;37.47;31.65;;;12.80;99.90;;;;;;2072066;28;20021;-70
2021/11/20 04:00:55;;;;;;;37.22;31.10;;;12.80;99.90;;;;;;2072466;28;20026;-70
2021/11/20 04:01:57;;;;;;;38.63;31.67;;;12.80;99.90;;;;;;2072215;28;20029;-70
2021/11/20 04:02:57;;;;;;;37.58;32.67;;;12.80;99.90;;;;;;2072306;28;20029;-70
2021/11/20 04:03:58;;;;;;;34.10;29.90;;;12.80;99.90;;;;;;2071999;28;20026;-71
2021/11/20 04:04:59;;;;;;;37.55;31.48;;;12.80;99.90;;;;;;2072475;28;20025;-70
2021/11/20 04:05:59;;;;;;;37.33;32.45;;;12.80;99.90;;;;;;2072044;28;21075;-70
2021/11/20 04:07:02;;;;;;;35.35;31.05;;;12.80;99.90;;;;;;2071892;28;20037;-70
2021/11/20 04:08:04;;;;;;;38.55;31.35;;;12.80;99.90;;;;;;2072282;28;20022;-70
2021/11/20 04:09:12;;;;;;;35.20;30.33;;;12.80;99.90;;;;;;2072010;28;20504;-70
2021/11/20 04:10:13;;;;;;;36.83;30.65;;;12.80;99.90;;;;;;2072293;28;20872;-70
2021/11/20 04:11:17;;;;;;;34.72;29.90;;;12.80;99.90;;;;;;2072546;28;20029;-70
2021/11/20 04:12:18;;;;;;;35.33;28.85;;;12.80;99.90;;;;;;2072314;28;20524;-70
2021/11/20 04:13:19;;;;;;;36.05;30.55;;;12.80;99.90;;;;;;2072463;28;20026;-70
2021/11/20 04:14:24;;;;;;;33.30;28.40;;;12.80;99.90;;;;;;2072148;28;20026;-70
2021/11/20 04:15:27;;;;;;;35.80;29.35;;;12.80;99.90;;;;;;2072269;28;20734;-70
2021/11/20 04:16:29;;;;;;;33.33;28.88;;;12.80;99.90;;;;;;2072489;28;20033;-70
2021/11/20 04:17:30;;;;;;;32.88;29.15;;;12.70;99.90;;;;;;2072173;28;20022;-70
2021/11/20 04:18:31;;;;;;;32.50;28.83;;;12.70;99.90;;;;;;2071299;28;20050;-70
2021/11/20 04:19:31;;;;;;;31.95;28.45;;;12.70;99.90;;;;;;2071403;28;20014;-70
2021/11/20 04:20:33;;;;;;;34.58;28.90;;;12.70;99.90;;;;;;2071190;28;20017;-70
2021/11/20 04:21:34;;;;;;;33.05;28.65;;;12.70;99.90;;;;;;2072366;28;20036;-70
2021/11/20 04:22:35;;;;;;;34.15;29.67;;;12.70;99.90;;;;;;2072015;28;20029;-70
2021/11/20 04:23:36;;;;;;;36.83;28.60;;;12.70;99.90;;;;;;2072382;28;20018;-70
2021/11/20 04:24:36;;;;;;;34.10;28.08;;;12.70;99.90;;;;;;2072271;28;20092;-70
2021/11/20 04:25:38;;;;;;;35.42;29.10;;;12.70;99.90;;;;;;2072386;28;20026;-70
2021/11/20 04:26:38;;;;;;;30.98;27.48;;;12.70;99.90;;;;;;2072111;28;20109;-70
2021/11/20 04:27:39;;;;;;;30.20;26.98;;;12.70;99.90;;;;;;2072124;28;20076;-70
2021/11/20 04:28:40;;;;;;;29.90;25.85;;;12.70;99.90;;;;;;2071784;28;20028;-70
2021/11/20 04:29:41;;;;;;;31.90;26.70;;;12.60;99.90;;;;;;2072343;28;20060;-70
2021/11/20 04:30:43;;;;;;;29.65;26.42;;;12.60;99.90;;;;;;2071556;28;20042;-70
2021/11/20 04:31:44;;;;;;;30.80;27.38;;;12.60;99.90;;;;;;2072360;28;20057;-70
2021/11/20 04:32:45;;;;;;;32.83;27.38;;;12.60;99.90;;;;;;2071405;28;20026;-70
2021/11/20 04:33:48;;;;;;;29.10;25.95;;;12.60;99.90;;;;;;2071581;28;20045;-70
2021/11/20 04:34:49;;;;;;;30.17;25.88;;;12.60;99.90;;;;;;2064079;28;20034;-70
2021/11/20 04:35:50;;;;;;;29.10;25.77;;;12.60;99.90;;;;;;2072221;28;20033;-70
2021/11/20 04:36:50;;;;;;;30.70;25.77;;;12.60;99.90;;;;;;2078737;28;20037;-70
2021/11/20 04:37:52;;;;;;;30.13;25.50;;;12.60;99.90;;;;;;2079650;28;20033;-70
2021/11/20 04:38:53;;;;;;;28.95;25.13;;;12.60;99.90;;;;;;2071210;28;20700;-70
2021/11/20 04:39:53;;;;;;;28.00;25.02;;;12.60;99.90;;;;;;2072234;28;20101;-70
2021/11/20 04:40:54;;;;;;;28.73;25.63;;;12.60;99.90;;;;;;2071767;28;20030;-70
2021/11/20 04:41:55;;;;;;;27.63;24.75;;;12.60;99.90;;;;;;2072141;28;20080;-70
2021/11/20 04:42:55;;;;;;;28.77;25.38;;;12.60;99.90;;;;;;2072040;28;20034;-70
2021/11/20 04:43:56;;;;;;;29.38;26.20;;;12.60;99.90;;;;;;2072235;28;20026;-70
2021/11/20 04:44:57;;;;;;;31.10;26.88;;;12.60;99.90;;;;;;2069657;28;20058;-70
2021/11/20 04:45:58;;;;;;;28.58;25.45;;;12.60;99.90;;;;;;2072345;28;20065;-70
2021/11/20 04:46:58;;;;;;;30.27;25.55;;;12.60;99.90;;;;;;2069450;28;20084;-70
2021/11/20 04:47:59;;;;;;;30.08;25.70;;;12.60;99.90;;;;;;2072031;28;20052;-70
2021/11/20 04:49:00;;;;;;;30.10;26.42;;;12.60;99.90;;;;;;2071227;28;20049;-70
2021/11/20 04:50:01;;;;;;;30.40;27.25;;;12.60;99.90;;;;;;2071391;28;20564;-70
2021/11/20 04:51:03;;;;;;;29.42;26.35;;;12.60;99.90;;;;;;2072147;28;20014;-70
2021/11/20 04:52:04;;;;;;;32.67;28.38;;;12.60;99.90;;;;;;2071343;28;20029;-70
2021/11/20 04:53:05;;;;;;;29.45;26.42;;;12.60;99.90;;;;;;2071261;28;20502;-70
2021/11/20 04:54:06;;;;;;;29.73;26.33;;;12.60;99.90;;;;;;2071992;28;20482;-70
2021/11/20 04:55:09;;;;;;;30.60;27.30;;;12.60;99.90;;;;;;2072111;28;20049;-70
2021/11/20 04:56:11;;;;;;;31.30;27.83;;;12.60;99.90;;;;;;2071956;28;20398;-70
2021/11/20 04:57:11;;;;;;;31.45;28.05;;;12.60;99.90;;;;;;2072371;28;20367;-70
2021/11/20 04:58:12;;;;;;;30.92;27.15;;;12.60;99.90;;;;;;2070789;28;20044;-70
2021/11/20 04:59:13;;;;;;;33.17;29.65;;;12.60;99.90;;;;;;2071350;28;20105;-70
2021/11/20 05:00:16;;;;;;;33.22;29.63;;;12.60;99.90;;;;;;2071935;28;20022;-70
2021/11/20 05:01:20;;;;;;;30.73;27.42;;;12.60;99.90;;;;;;2072215;28;20058;-70
2021/11/20 05:02:21;;;;;;;31.50;28.05;;;12.60;99.90;;;;;;2071694;28;20072;-71
2021/11/20 05:03:23;;;;;;;33.45;29.83;;;12.60;99.90;;;;;;2072003;28;20025;-70
2021/11/20 05:04:23;;;;;;;31.15;27.85;;;12.60;99.90;;;;;;2071744;28;20090;-70
2021/11/20 05:05:24;;;;;;;32.90;29.35;;;12.60;99.90;;;;;;2071764;28;20021;-70
2021/11/20 05:06:25;;;;;;;36.47;30.40;;;12.60;99.90;;;;;;2071805;28;20498;-70
2021/11/20 05:07:26;;;;;;;36.42;31.58;;;12.60;99.90;;;;;;2071561;28;20414;-70
2021/11/20 05:08:27;;;;;;;32.60;29.08;;;12.50;99.90;;;;;;2071418;28;20030;-70
2021/11/20 05:09:28;;;;;;;34.70;30.38;;;12.60;99.90;;;;;;2072210;28;20083;-70
2021/11/20 05:10:29;;;;;;;35.40;29.92;;;12.60;99.90;;;;;;2071757;28;20076;-70
2021/11/20 05:11:31;;;;;;;36.65;31.63;;;12.60;99.90;;;;;;2071947;28;20501;-70
2021/11/20 05:12:31;;;;;;;35.22;31.02;;;12.60;99.90;;;;;;2071675;28;20025;-70
2021/11/20 05:13:33;;;;;;;35.55;31.48;;;12.60;99.90;;;;;;2071718;28;20053;-70
2021/11/20 05:14:36;;;;;;;35.70;30.50;;;12.60;99.90;;;;;;2071859;28;20421;-70
2021/11/20 05:15:39;;;;;;;36.75;31.83;;;12.60;99.90;;;;;;2072273;28;20025;-70
2021/11/20 05:16:39;;;;;;;36.97;31.45;;;12.60;99.90;;;;;;2071814;28;20467;-70
2021/11/20 05:17:40;;;;;;;38.38;32.72;;;12.60;99.90;;;;;;2071476;28;20386;-70
2021/11/20 05:18:41;;;;;;;36.50;31.90;;;12.60;99.90;;;;;;2071173;28;20377;-70
2021/11/20 05:19:41;;;;;;;38.13;31.90;;;12.60;99.90;;;;;;2064089;28;20026;-70
2021/11/20 05:20:43;;;;;;;44.25;32.05;;;12.60;99.90;;;;;;2067442;28;20029;-70
2021/11/20 05:21:44;;;;;;;36.47;32.20;;;12.60;99.90;;;;;;2071706;28;20026;-70
2021/11/20 05:22:45;;;;;;;39.72;32.90;;;12.60;99.90;;;;;;2070834;28;20105;-70
2021/11/20 05:23:46;;;;;;;37.90;32.22;;;12.60;99.90;;;;;;2071332;28;20032;-70